sensor_id;sensor_type;location;lat;lon;timestamp;P1;durP1;ratioP1;P2;durP2;ratioP2
4504;SDS011;2265;48.794;9.520;2024-01-30T00:02:16;20.10;;;6.97;;
4504;SDS011;2265;48.794;9.520;2024-01-30T00:04:43;17.43;;;6.90;;
4504;SDS011;2265;48.794;9.520;2024-01-30T00:07:10;14.80;;;7.20;;
4504;SDS011;2265;48.794;9.520;2024-01-30T00:09:39;19.60;;;6.70;;
4504;SDS011;2265;48.794;9.520;2024-01-30T00:12:06;16.30;;;6.50;;
4504;SDS011;2265;48.794;9.520;2024-01-30T00:14:33;18.70;;;7.10;;
4504;SDS011;2265;48.794;9.520;2024-01-30T00:17:02;15.77;;;6.83;;
4504;SDS011;2265;48.794;9.520;2024-01-30T00:19:29;16.40;;;6.87;;
4504;SDS011;2265;48.794;9.520;2024-01-30T00:21:57;15.40;;;6.43;;
4504;SDS011;2265;48.794;9.520;2024-01-30T00:24:24;16.40;;;7.63;;
4504;SDS011;2265;48.794;9.520;2024-01-30T00:26:51;15.00;;;6.37;;
4504;SDS011;2265;48.794;9.520;2024-01-30T00:29:20;14.00;;;6.20;;
4504;SDS011;2265;48.794;9.520;2024-01-30T00:31:48;17.90;;;7.30;;
4504;SDS011;2265;48.794;9.520;2024-01-30T00:34:16;13.47;;;6.33;;
4504;SDS011;2265;48.794;9.520;2024-01-30T00:36:43;15.80;;;6.67;;
4504;SDS011;2265;48.794;9.520;2024-01-30T00:39:11;15.80;;;6.40;;
4504;SDS011;2265;48.794;9.520;2024-01-30T00:41:41;14.07;;;6.30;;
4504;SDS011;2265;48.794;9.520;2024-01-30T00:44:08;15.97;;;7.20;;
4504;SDS011;2265;48.794;9.520;2024-01-30T00:46:35;14.93;;;5.87;;
4504;SDS011;2265;48.794;9.520;2024-01-30T00:49:02;13.40;;;6.00;;
4504;SDS011;2265;48.794;9.520;2024-01-30T00:51:30;17.70;;;6.23;;
4504;SDS011;2265;48.794;9.520;2024-01-30T00:53:57;12.70;;;6.17;;
4504;SDS011;2265;48.794;9.520;2024-01-30T00:56:25;18.80;;;6.30;;
4504;SDS011;2265;48.794;9.520;2024-01-30T00:58:52;15.80;;;6.50;;
4504;SDS011;2265;48.794;9.520;2024-01-30T01:01:19;15.10;;;6.50;;
4504;SDS011;2265;48.794;9.520;2024-01-30T01:03:46;15.73;;;6.33;;
4504;SDS011;2265;48.794;9.520;2024-01-30T01:06:13;14.77;;;6.50;;
4504;SDS011;2265;48.794;9.520;2024-01-30T01:08:43;14.87;;;6.43;;
4504;SDS011;2265;48.794;9.520;2024-01-30T01:11:10;13.13;;;5.87;;
4504;SDS011;2265;48.794;9.520;2024-01-30T01:13:38;14.17;;;5.97;;
4504;SDS011;2265;48.794;9.520;2024-01-30T01:16:05;18.80;;;7.20;;
4504;SDS011;2265;48.794;9.520;2024-01-30T01:18:32;13.97;;;6.20;;
4504;SDS011;2265;48.794;9.520;2024-01-30T01:20:59;13.40;;;5.67;;
4504;SDS011;2265;48.794;9.520;2024-01-30T01:23:26;12.37;;;5.40;;
4504;SDS011;2265;48.794;9.520;2024-01-30T01:25:55;18.40;;;6.33;;
4504;SDS011;2265;48.794;9.520;2024-01-30T01:28:22;15.30;;;6.57;;
4504;SDS011;2265;48.794;9.520;2024-01-30T01:30:49;14.47;;;6.30;;
4504;SDS011;2265;48.794;9.520;2024-01-30T01:33:16;15.20;;;6.70;;
4504;SDS011;2265;48.794;9.520;2024-01-30T01:35:43;16.40;;;6.57;;
4504;SDS011;2265;48.794;9.520;2024-01-30T01:38:10;14.17;;;6.07;;
4504;SDS011;2265;48.794;9.520;2024-01-30T01:40:37;11.80;;;5.50;;
4504;SDS011;2265;48.794;9.520;2024-01-30T01:43:07;15.87;;;6.40;;
4504;SDS011;2265;48.794;9.520;2024-01-30T01:45:34;14.37;;;5.93;;
4504;SDS011;2265;48.794;9.520;2024-01-30T01:48:02;13.60;;;6.43;;
4504;SDS011;2265;48.794;9.520;2024-01-30T01:50:29;20.13;;;6.43;;
4504;SDS011;2265;48.794;9.520;2024-01-30T01:52:57;13.77;;;6.50;;
4504;SDS011;2265;48.794;9.520;2024-01-30T01:55:24;11.47;;;6.00;;
4504;SDS011;2265;48.794;9.520;2024-01-30T01:57:53;15.93;;;6.60;;
4504;SDS011;2265;48.794;9.520;2024-01-30T02:00:24;16.87;;;6.50;;
4504;SDS011;2265;48.794;9.520;2024-01-30T02:02:51;15.70;;;7.10;;
4504;SDS011;2265;48.794;9.520;2024-01-30T02:05:21;18.73;;;7.40;;
4504;SDS011;2265;48.794;9.520;2024-01-30T02:07:50;15.27;;;6.50;;
4504;SDS011;2265;48.794;9.520;2024-01-30T02:10:17;17.27;;;6.23;;
4504;SDS011;2265;48.794;9.520;2024-01-30T02:12:44;13.90;;;5.77;;
4504;SDS011;2265;48.794;9.520;2024-01-30T02:15:13;13.70;;;6.23;;
4504;SDS011;2265;48.794;9.520;2024-01-30T02:17:41;13.93;;;6.20;;
4504;SDS011;2265;48.794;9.520;2024-01-30T02:20:09;11.83;;;6.20;;
4504;SDS011;2265;48.794;9.520;2024-01-30T02:22:40;14.67;;;5.73;;
4504;SDS011;2265;48.794;9.520;2024-01-30T02:25:09;13.70;;;6.30;;
4504;SDS011;2265;48.794;9.520;2024-01-30T02:27:36;14.20;;;6.53;;
4504;SDS011;2265;48.794;9.520;2024-01-30T02:30:03;15.37;;;6.23;;
4504;SDS011;2265;48.794;9.520;2024-01-30T02:32:31;14.57;;;6.17;;
4504;SDS011;2265;48.794;9.520;2024-01-30T02:34:59;14.63;;;6.20;;
4504;SDS011;2265;48.794;9.520;2024-01-30T02:37:26;14.00;;;5.90;;
4504;SDS011;2265;48.794;9.520;2024-01-30T02:39:54;15.77;;;6.70;;
4504;SDS011;2265;48.794;9.520;2024-01-30T02:42:21;17.67;;;6.90;;
4504;SDS011;2265;48.794;9.520;2024-01-30T02:44:48;12.83;;;5.97;;
4504;SDS011;2265;48.794;9.520;2024-01-30T02:47:16;17.50;;;6.20;;
4504;SDS011;2265;48.794;9.520;2024-01-30T02:49:43;16.20;;;6.60;;
4504;SDS011;2265;48.794;9.520;2024-01-30T02:52:10;15.00;;;6.30;;
4504;SDS011;2265;48.794;9.520;2024-01-30T02:54:37;13.53;;;6.30;;
4504;SDS011;2265;48.794;9.520;2024-01-30T02:57:05;12.90;;;6.17;;
4504;SDS011;2265;48.794;9.520;2024-01-30T02:59:33;14.23;;;5.93;;
4504;SDS011;2265;48.794;9.520;2024-01-30T03:02:01;14.73;;;6.00;;
4504;SDS011;2265;48.794;9.520;2024-01-30T03:04:28;13.17;;;5.57;;
4504;SDS011;2265;48.794;9.520;2024-01-30T03:06:55;15.43;;;5.67;;
4504;SDS011;2265;48.794;9.520;2024-01-30T03:09:23;15.47;;;6.37;;
4504;SDS011;2265;48.794;9.520;2024-01-30T03:11:51;12.17;;;5.90;;
4504;SDS011;2265;48.794;9.520;2024-01-30T03:14:20;14.60;;;6.20;;
4504;SDS011;2265;48.794;9.520;2024-01-30T03:16:47;13.50;;;6.20;;
4504;SDS011;2265;48.794;9.520;2024-01-30T03:19:14;13.57;;;5.57;;
4504;SDS011;2265;48.794;9.520;2024-01-30T03:21:42;14.03;;;6.57;;
4504;SDS011;2265;48.794;9.520;2024-01-30T03:24:09;14.27;;;5.37;;
4504;SDS011;2265;48.794;9.520;2024-01-30T03:26:36;12.70;;;5.80;;
4504;SDS011;2265;48.794;9.520;2024-01-30T03:29:03;12.43;;;5.53;;
4504;SDS011;2265;48.794;9.520;2024-01-30T03:31:31;10.93;;;5.53;;
4504;SDS011;2265;48.794;9.520;2024-01-30T03:33:58;13.30;;;6.53;;
4504;SDS011;2265;48.794;9.520;2024-01-30T03:36:25;13.03;;;5.70;;
4504;SDS011;2265;48.794;9.520;2024-01-30T03:38:54;14.67;;;6.00;;
4504;SDS011;2265;48.794;9.520;2024-01-30T03:41:21;14.60;;;6.60;;
4504;SDS011;2265;48.794;9.520;2024-01-30T03:43:48;11.60;;;5.43;;
4504;SDS011;2265;48.794;9.520;2024-01-30T03:46:15;14.57;;;5.77;;
4504;SDS011;2265;48.794;9.520;2024-01-30T03:48:44;15.17;;;5.83;;
4504;SDS011;2265;48.794;9.520;2024-01-30T03:51:12;12.60;;;6.20;;
4504;SDS011;2265;48.794;9.520;2024-01-30T03:53:41;14.40;;;6.40;;
4504;SDS011;2265;48.794;9.520;2024-01-30T03:56:08;13.70;;;6.07;;
4504;SDS011;2265;48.794;9.520;2024-01-30T03:58:36;10.67;;;5.60;;
4504;SDS011;2265;48.794;9.520;2024-01-30T04:01:03;12.67;;;6.23;;
4504;SDS011;2265;48.794;9.520;2024-01-30T04:03:30;13.90;;;5.90;;
4504;SDS011;2265;48.794;9.520;2024-01-30T04:05:59;16.20;;;5.70;;
4504;SDS011;2265;48.794;9.520;2024-01-30T04:08:26;16.40;;;6.27;;
4504;SDS011;2265;48.794;9.520;2024-01-30T04:10:53;12.97;;;5.87;;
4504;SDS011;2265;48.794;9.520;2024-01-30T04:13:20;15.80;;;6.00;;
4504;SDS011;2265;48.794;9.520;2024-01-30T04:15:47;18.00;;;6.73;;
4504;SDS011;2265;48.794;9.520;2024-01-30T04:18:15;12.63;;;5.93;;
4504;SDS011;2265;48.794;9.520;2024-01-30T04:20:42;13.40;;;5.50;;
4504;SDS011;2265;48.794;9.520;2024-01-30T04:23:11;16.00;;;6.43;;
4504;SDS011;2265;48.794;9.520;2024-01-30T04:25:37;11.60;;;5.67;;
4504;SDS011;2265;48.794;9.520;2024-01-30T04:28:05;13.33;;;6.00;;
4504;SDS011;2265;48.794;9.520;2024-01-30T04:30:32;13.63;;;6.30;;
4504;SDS011;2265;48.794;9.520;2024-01-30T04:32:59;10.90;;;5.40;;
4504;SDS011;2265;48.794;9.520;2024-01-30T04:35:26;12.33;;;5.60;;
4504;SDS011;2265;48.794;9.520;2024-01-30T04:37:53;24.60;;;9.17;;
4504;SDS011;2265;48.794;9.520;2024-01-30T04:40:22;12.87;;;6.00;;
4504;SDS011;2265;48.794;9.520;2024-01-30T04:42:49;14.23;;;5.90;;
4504;SDS011;2265;48.794;9.520;2024-01-30T04:45:16;11.00;;;5.30;;
4504;SDS011;2265;48.794;9.520;2024-01-30T04:47:43;10.90;;;5.50;;
4504;SDS011;2265;48.794;9.520;2024-01-30T04:50:25;16.83;;;6.93;;
4504;SDS011;2265;48.794;9.520;2024-01-30T04:52:52;13.87;;;6.27;;
4504;SDS011;2265;48.794;9.520;2024-01-30T04:55:19;12.83;;;5.80;;
4504;SDS011;2265;48.794;9.520;2024-01-30T04:57:49;14.13;;;5.90;;
4504;SDS011;2265;48.794;9.520;2024-01-30T05:00:17;14.03;;;5.73;;
4504;SDS011;2265;48.794;9.520;2024-01-30T05:02:44;14.43;;;6.17;;
4504;SDS011;2265;48.794;9.520;2024-01-30T05:05:12;20.20;;;7.53;;
4504;SDS011;2265;48.794;9.520;2024-01-30T05:07:40;17.63;;;6.93;;
4504;SDS011;2265;48.794;9.520;2024-01-30T05:10:08;12.33;;;5.80;;
4504;SDS011;2265;48.794;9.520;2024-01-30T05:12:38;13.33;;;5.47;;
4504;SDS011;2265;48.794;9.520;2024-01-30T05:15:05;13.27;;;5.67;;
4504;SDS011;2265;48.794;9.520;2024-01-30T05:17:33;15.63;;;6.80;;
4504;SDS011;2265;48.794;9.520;2024-01-30T05:20:00;14.30;;;5.57;;
4504;SDS011;2265;48.794;9.520;2024-01-30T05:22:27;8.77;;;4.70;;
4504;SDS011;2265;48.794;9.520;2024-01-30T05:24:54;12.50;;;5.60;;
4504;SDS011;2265;48.794;9.520;2024-01-30T05:27:21;11.70;;;4.93;;
4504;SDS011;2265;48.794;9.520;2024-01-30T05:29:50;12.17;;;5.60;;
4504;SDS011;2265;48.794;9.520;2024-01-30T05:32:17;13.70;;;5.87;;
4504;SDS011;2265;48.794;9.520;2024-01-30T05:34:44;14.70;;;6.17;;
4504;SDS011;2265;48.794;9.520;2024-01-30T05:37:11;11.40;;;5.93;;
4504;SDS011;2265;48.794;9.520;2024-01-30T05:39:42;11.13;;;5.63;;
4504;SDS011;2265;48.794;9.520;2024-01-30T05:42:09;18.03;;;5.20;;
4504;SDS011;2265;48.794;9.520;2024-01-30T05:44:36;15.20;;;6.60;;
4504;SDS011;2265;48.794;9.520;2024-01-30T05:47:04;13.53;;;5.90;;
4504;SDS011;2265;48.794;9.520;2024-01-30T05:49:31;13.40;;;5.67;;
4504;SDS011;2265;48.794;9.520;2024-01-30T05:52:02;14.83;;;6.10;;
4504;SDS011;2265;48.794;9.520;2024-01-30T05:54:30;14.30;;;6.23;;
4504;SDS011;2265;48.794;9.520;2024-01-30T05:56:57;11.67;;;5.90;;
4504;SDS011;2265;48.794;9.520;2024-01-30T05:59:24;13.80;;;6.23;;
4504;SDS011;2265;48.794;9.520;2024-01-30T06:01:51;12.80;;;5.80;;
4504;SDS011;2265;48.794;9.520;2024-01-30T06:04:20;13.30;;;5.33;;
4504;SDS011;2265;48.794;9.520;2024-01-30T06:06:48;16.83;;;6.27;;
4504;SDS011;2265;48.794;9.520;2024-01-30T06:09:15;12.80;;;5.17;;
4504;SDS011;2265;48.794;9.520;2024-01-30T06:11:42;18.67;;;6.17;;
4504;SDS011;2265;48.794;9.520;2024-01-30T06:14:10;10.03;;;4.93;;
4504;SDS011;2265;48.794;9.520;2024-01-30T06:16:38;12.57;;;6.20;;
4504;SDS011;2265;48.794;9.520;2024-01-30T06:19:05;15.93;;;6.87;;
4504;SDS011;2265;48.794;9.520;2024-01-30T06:21:33;17.43;;;7.40;;
4504;SDS011;2265;48.794;9.520;2024-01-30T06:24:01;15.67;;;7.07;;
4504;SDS011;2265;48.794;9.520;2024-01-30T06:26:29;15.30;;;7.30;;
4504;SDS011;2265;48.794;9.520;2024-01-30T06:28:56;17.13;;;7.60;;
4504;SDS011;2265;48.794;9.520;2024-01-30T06:31:23;18.33;;;8.27;;
4504;SDS011;2265;48.794;9.520;2024-01-30T06:33:50;19.50;;;7.30;;
4504;SDS011;2265;48.794;9.520;2024-01-30T06:36:17;13.67;;;6.93;;
4504;SDS011;2265;48.794;9.520;2024-01-30T06:38:46;16.83;;;7.00;;
4504;SDS011;2265;48.794;9.520;2024-01-30T06:41:14;18.60;;;7.37;;
4504;SDS011;2265;48.794;9.520;2024-01-30T06:43:41;12.90;;;6.80;;
4504;SDS011;2265;48.794;9.520;2024-01-30T06:46:10;15.40;;;6.13;;
4504;SDS011;2265;48.794;9.520;2024-01-30T06:48:39;14.07;;;6.30;;
4504;SDS011;2265;48.794;9.520;2024-01-30T06:51:07;15.30;;;6.37;;
4504;SDS011;2265;48.794;9.520;2024-01-30T06:53:34;15.87;;;7.00;;
4504;SDS011;2265;48.794;9.520;2024-01-30T06:56:03;19.13;;;7.00;;
4504;SDS011;2265;48.794;9.520;2024-01-30T06:58:33;16.57;;;7.03;;
4504;SDS011;2265;48.794;9.520;2024-01-30T07:01:02;14.40;;;6.70;;
4504;SDS011;2265;48.794;9.520;2024-01-30T07:03:29;18.00;;;7.13;;
4504;SDS011;2265;48.794;9.520;2024-01-30T07:05:56;16.40;;;6.60;;
4504;SDS011;2265;48.794;9.520;2024-01-30T07:08:23;16.90;;;7.27;;
4504;SDS011;2265;48.794;9.520;2024-01-30T07:10:50;16.00;;;6.87;;
4504;SDS011;2265;48.794;9.520;2024-01-30T07:13:21;16.00;;;6.50;;
4504;SDS011;2265;48.794;9.520;2024-01-30T07:15:48;13.97;;;6.90;;
4504;SDS011;2265;48.794;9.520;2024-01-30T07:18:16;14.30;;;6.60;;
4504;SDS011;2265;48.794;9.520;2024-01-30T07:20:43;16.93;;;7.33;;
4504;SDS011;2265;48.794;9.520;2024-01-30T07:23:12;16.67;;;7.00;;
4504;SDS011;2265;48.794;9.520;2024-01-30T07:25:41;17.00;;;7.17;;
4504;SDS011;2265;48.794;9.520;2024-01-30T07:28:09;17.20;;;6.40;;
4504;SDS011;2265;48.794;9.520;2024-01-30T07:30:38;17.10;;;6.90;;
4504;SDS011;2265;48.794;9.520;2024-01-30T07:33:06;13.97;;;6.47;;
4504;SDS011;2265;48.794;9.520;2024-01-30T07:35:34;17.00;;;7.53;;
4504;SDS011;2265;48.794;9.520;2024-01-30T07:38:01;17.50;;;7.33;;
4504;SDS011;2265;48.794;9.520;2024-01-30T07:40:28;18.13;;;7.30;;
4504;SDS011;2265;48.794;9.520;2024-01-30T07:42:55;18.67;;;6.73;;
4504;SDS011;2265;48.794;9.520;2024-01-30T07:45:22;17.10;;;7.80;;
4504;SDS011;2265;48.794;9.520;2024-01-30T07:47:51;13.43;;;6.33;;
4504;SDS011;2265;48.794;9.520;2024-01-30T07:50:18;17.53;;;7.10;;
4504;SDS011;2265;48.794;9.520;2024-01-30T07:52:45;15.30;;;6.53;;
4504;SDS011;2265;48.794;9.520;2024-01-30T07:58:37;20.17;;;7.93;;
4504;SDS011;2265;48.794;9.520;2024-01-30T08:01:04;21.60;;;8.90;;
4504;SDS011;2265;48.794;9.520;2024-01-30T08:03:32;21.50;;;7.80;;
4504;SDS011;2265;48.794;9.520;2024-01-30T08:05:59;17.80;;;8.43;;
4504;SDS011;2265;48.794;9.520;2024-01-30T08:08:27;19.23;;;7.60;;
4504;SDS011;2265;48.794;9.520;2024-01-30T08:10:55;14.93;;;6.77;;
4504;SDS011;2265;48.794;9.520;2024-01-30T08:13:22;18.80;;;7.00;;
4504;SDS011;2265;48.794;9.520;2024-01-30T08:15:49;16.20;;;6.90;;
4504;SDS011;2265;48.794;9.520;2024-01-30T08:18:16;19.27;;;7.37;;
4504;SDS011;2265;48.794;9.520;2024-01-30T08:20:44;19.20;;;7.70;;
4504;SDS011;2265;48.794;9.520;2024-01-30T08:23:11;16.00;;;7.37;;
4504;SDS011;2265;48.794;9.520;2024-01-30T08:25:39;17.20;;;8.17;;
4504;SDS011;2265;48.794;9.520;2024-01-30T08:28:07;17.37;;;7.73;;
4504;SDS011;2265;48.794;9.520;2024-01-30T08:30:34;16.07;;;6.63;;
4504;SDS011;2265;48.794;9.520;2024-01-30T08:33:04;14.83;;;6.77;;
4504;SDS011;2265;48.794;9.520;2024-01-30T08:35:34;17.90;;;7.27;;
4504;SDS011;2265;48.794;9.520;2024-01-30T08:38:02;19.00;;;7.97;;
4504;SDS011;2265;48.794;9.520;2024-01-30T08:40:30;16.00;;;6.30;;
4504;SDS011;2265;48.794;9.520;2024-01-30T08:42:57;13.87;;;6.97;;
4504;SDS011;2265;48.794;9.520;2024-01-30T08:45:24;24.17;;;9.30;;
4504;SDS011;2265;48.794;9.520;2024-01-30T08:47:53;19.23;;;8.20;;
4504;SDS011;2265;48.794;9.520;2024-01-30T08:50:20;25.53;;;8.77;;
4504;SDS011;2265;48.794;9.520;2024-01-30T08:52:47;20.80;;;8.33;;
4504;SDS011;2265;48.794;9.520;2024-01-30T08:55:17;19.07;;;7.10;;
4504;SDS011;2265;48.794;9.520;2024-01-30T08:57:44;14.70;;;6.20;;
4504;SDS011;2265;48.794;9.520;2024-01-30T09:00:11;24.10;;;9.97;;
4504;SDS011;2265;48.794;9.520;2024-01-30T09:02:39;23.80;;;9.53;;
4504;SDS011;2265;48.794;9.520;2024-01-30T09:05:07;15.80;;;7.70;;
4504;SDS011;2265;48.794;9.520;2024-01-30T09:07:34;23.23;;;10.30;;
4504;SDS011;2265;48.794;9.520;2024-01-30T09:10:01;22.73;;;7.20;;
4504;SDS011;2265;48.794;9.520;2024-01-30T09:12:30;20.50;;;8.90;;
4504;SDS011;2265;48.794;9.520;2024-01-30T09:14:57;23.20;;;9.20;;
4504;SDS011;2265;48.794;9.520;2024-01-30T09:17:25;26.00;;;9.63;;
4504;SDS011;2265;48.794;9.520;2024-01-30T09:19:53;23.53;;;9.57;;
4504;SDS011;2265;48.794;9.520;2024-01-30T09:22:20;26.50;;;10.13;;
4504;SDS011;2265;48.794;9.520;2024-01-30T09:24:47;21.47;;;9.23;;
4504;SDS011;2265;48.794;9.520;2024-01-30T09:27:14;24.20;;;9.93;;
4504;SDS011;2265;48.794;9.520;2024-01-30T09:29:43;22.90;;;9.53;;
4504;SDS011;2265;48.794;9.520;2024-01-30T09:32:10;22.07;;;9.23;;
4504;SDS011;2265;48.794;9.520;2024-01-30T09:34:40;23.97;;;9.77;;
4504;SDS011;2265;48.794;9.520;2024-01-30T09:37:07;19.67;;;9.13;;
4504;SDS011;2265;48.794;9.520;2024-01-30T09:39:34;20.93;;;9.43;;
4504;SDS011;2265;48.794;9.520;2024-01-30T09:42:02;21.37;;;9.00;;
4504;SDS011;2265;48.794;9.520;2024-01-30T09:44:36;24.70;;;10.90;;
4504;SDS011;2265;48.794;9.520;2024-01-30T09:47:09;18.07;;;8.73;;
4504;SDS011;2265;48.794;9.520;2024-01-30T09:49:36;21.87;;;9.53;;
4504;SDS011;2265;48.794;9.520;2024-01-30T09:52:05;18.57;;;8.90;;
4504;SDS011;2265;48.794;9.520;2024-01-30T09:54:33;23.80;;;9.70;;
4504;SDS011;2265;48.794;9.520;2024-01-30T09:57:01;25.73;;;10.20;;
4504;SDS011;2265;48.794;9.520;2024-01-30T09:59:28;26.07;;;10.00;;
4504;SDS011;2265;48.794;9.520;2024-01-30T10:01:55;24.33;;;10.00;;
4504;SDS011;2265;48.794;9.520;2024-01-30T10:04:25;21.60;;;9.10;;
4504;SDS011;2265;48.794;9.520;2024-01-30T10:06:52;19.57;;;9.67;;
4504;SDS011;2265;48.794;9.520;2024-01-30T10:09:19;21.10;;;9.00;;
4504;SDS011;2265;48.794;9.520;2024-01-30T10:11:46;29.00;;;14.30;;
4504;SDS011;2265;48.794;9.520;2024-01-30T10:14:17;22.10;;;11.10;;
4504;SDS011;2265;48.794;9.520;2024-01-30T10:16:46;24.63;;;9.30;;
4504;SDS011;2265;48.794;9.520;2024-01-30T10:19:13;21.63;;;9.83;;
4504;SDS011;2265;48.794;9.520;2024-01-30T10:21:41;24.07;;;9.93;;
4504;SDS011;2265;48.794;9.520;2024-01-30T10:24:08;22.20;;;9.43;;
4504;SDS011;2265;48.794;9.520;2024-01-30T10:26:38;22.70;;;9.80;;
4504;SDS011;2265;48.794;9.520;2024-01-30T10:29:05;20.87;;;9.47;;
4504;SDS011;2265;48.794;9.520;2024-01-30T10:31:32;19.67;;;9.30;;
4504;SDS011;2265;48.794;9.520;2024-01-30T10:33:59;25.10;;;10.20;;
4504;SDS011;2265;48.794;9.520;2024-01-30T10:36:28;24.77;;;10.33;;
4504;SDS011;2265;48.794;9.520;2024-01-30T10:38:58;23.63;;;10.17;;
4504;SDS011;2265;48.794;9.520;2024-01-30T10:41:26;23.20;;;10.30;;
4504;SDS011;2265;48.794;9.520;2024-01-30T10:43:57;27.10;;;10.57;;
4504;SDS011;2265;48.794;9.520;2024-01-30T10:46:35;21.57;;;9.20;;
4504;SDS011;2265;48.794;9.520;2024-01-30T10:49:05;20.50;;;9.43;;
4504;SDS011;2265;48.794;9.520;2024-01-30T10:51:32;22.77;;;10.10;;
4504;SDS011;2265;48.794;9.520;2024-01-30T10:54:04;23.23;;;10.20;;
4504;SDS011;2265;48.794;9.520;2024-01-30T10:56:35;21.80;;;9.90;;
4504;SDS011;2265;48.794;9.520;2024-01-30T10:59:03;22.97;;;10.43;;
4504;SDS011;2265;48.794;9.520;2024-01-30T11:01:31;24.03;;;10.17;;
4504;SDS011;2265;48.794;9.520;2024-01-30T11:03:58;22.83;;;10.30;;
4504;SDS011;2265;48.794;9.520;2024-01-30T11:06:25;23.63;;;10.30;;
4504;SDS011;2265;48.794;9.520;2024-01-30T11:11:50;25.20;;;10.07;;
4504;SDS011;2265;48.794;9.520;2024-01-30T11:14:22;20.20;;;10.20;;
4504;SDS011;2265;48.794;9.520;2024-01-30T11:16:51;23.33;;;10.47;;
4504;SDS011;2265;48.794;9.520;2024-01-30T11:19:22;21.33;;;10.43;;
4504;SDS011;2265;48.794;9.520;2024-01-30T11:21:51;22.13;;;10.23;;
4504;SDS011;2265;48.794;9.520;2024-01-30T11:24:22;20.97;;;9.90;;
4504;SDS011;2265;48.794;9.520;2024-01-30T11:26:55;22.50;;;10.77;;
4504;SDS011;2265;48.794;9.520;2024-01-30T11:29:24;21.97;;;10.07;;
4504;SDS011;2265;48.794;9.520;2024-01-30T11:31:52;25.80;;;10.70;;
4504;SDS011;2265;48.794;9.520;2024-01-30T11:34:20;26.67;;;10.63;;
4504;SDS011;2265;48.794;9.520;2024-01-30T11:36:48;27.33;;;11.77;;
4504;SDS011;2265;48.794;9.520;2024-01-30T11:39:20;28.37;;;11.70;;
4504;SDS011;2265;48.794;9.520;2024-01-30T11:41:51;22.40;;;10.93;;
4504;SDS011;2265;48.794;9.520;2024-01-30T11:44:19;23.13;;;10.80;;
4504;SDS011;2265;48.794;9.520;2024-01-30T11:46:47;24.73;;;10.90;;
4504;SDS011;2265;48.794;9.520;2024-01-30T11:49:14;26.33;;;10.90;;
4504;SDS011;2265;48.794;9.520;2024-01-30T11:51:42;32.83;;;11.40;;
4504;SDS011;2265;48.794;9.520;2024-01-30T11:54:09;27.30;;;10.67;;
4504;SDS011;2265;48.794;9.520;2024-01-30T11:56:36;23.27;;;10.17;;
4504;SDS011;2265;48.794;9.520;2024-01-30T11:59:05;24.50;;;10.70;;
4504;SDS011;2265;48.794;9.520;2024-01-30T12:01:33;24.97;;;11.20;;
4504;SDS011;2265;48.794;9.520;2024-01-30T12:04:02;23.67;;;10.60;;
4504;SDS011;2265;48.794;9.520;2024-01-30T12:06:33;22.90;;;10.50;;
4504;SDS011;2265;48.794;9.520;2024-01-30T12:09:01;25.63;;;11.87;;
4504;SDS011;2265;48.794;9.520;2024-01-30T12:11:30;27.60;;;11.40;;
4504;SDS011;2265;48.794;9.520;2024-01-30T12:13:57;24.77;;;10.33;;
4504;SDS011;2265;48.794;9.520;2024-01-30T12:16:25;24.30;;;10.97;;
4504;SDS011;2265;48.794;9.520;2024-01-30T12:18:59;22.60;;;10.93;;
4504;SDS011;2265;48.794;9.520;2024-01-30T12:21:27;27.47;;;11.97;;
4504;SDS011;2265;48.794;9.520;2024-01-30T12:23:56;26.97;;;12.10;;
4504;SDS011;2265;48.794;9.520;2024-01-30T12:26:23;24.17;;;11.77;;
4504;SDS011;2265;48.794;9.520;2024-01-30T12:28:54;29.03;;;12.03;;
4504;SDS011;2265;48.794;9.520;2024-01-30T12:31:27;23.03;;;11.60;;
4504;SDS011;2265;48.794;9.520;2024-01-30T12:33:55;26.10;;;11.67;;
4504;SDS011;2265;48.794;9.520;2024-01-30T12:36:22;26.00;;;11.33;;
4504;SDS011;2265;48.794;9.520;2024-01-30T12:38:49;22.80;;;11.77;;
4504;SDS011;2265;48.794;9.520;2024-01-30T12:41:16;22.73;;;10.77;;
4504;SDS011;2265;48.794;9.520;2024-01-30T12:43:43;25.60;;;11.60;;
4504;SDS011;2265;48.794;9.520;2024-01-30T12:46:12;25.27;;;11.30;;
4504;SDS011;2265;48.794;9.520;2024-01-30T12:48:41;30.23;;;11.93;;
4504;SDS011;2265;48.794;9.520;2024-01-30T12:51:08;29.13;;;12.10;;
4504;SDS011;2265;48.794;9.520;2024-01-30T12:53:35;25.23;;;11.53;;
4504;SDS011;2265;48.794;9.520;2024-01-30T12:56:02;27.20;;;11.50;;
4504;SDS011;2265;48.794;9.520;2024-01-30T12:58:30;26.27;;;11.23;;
4504;SDS011;2265;48.794;9.520;2024-01-30T13:00:57;21.37;;;10.73;;
4504;SDS011;2265;48.794;9.520;2024-01-30T13:03:24;23.50;;;10.00;;
4504;SDS011;2265;48.794;9.520;2024-01-30T13:05:54;16.67;;;7.10;;
4504;SDS011;2265;48.794;9.520;2024-01-30T13:08:22;12.83;;;6.23;;
4504;SDS011;2265;48.794;9.520;2024-01-30T13:10:49;19.40;;;9.70;;
4504;SDS011;2265;48.794;9.520;2024-01-30T13:13:16;21.53;;;10.17;;
4504;SDS011;2265;48.794;9.520;2024-01-30T13:15:43;29.67;;;11.03;;
4504;SDS011;2265;48.794;9.520;2024-01-30T13:18:10;22.50;;;10.07;;
4504;SDS011;2265;48.794;9.520;2024-01-30T13:20:37;20.50;;;9.93;;
4504;SDS011;2265;48.794;9.520;2024-01-30T13:23:06;25.43;;;11.60;;
4504;SDS011;2265;48.794;9.520;2024-01-30T13:25:33;24.00;;;11.50;;
4504;SDS011;2265;48.794;9.520;2024-01-30T13:28:00;24.03;;;11.20;;
4504;SDS011;2265;48.794;9.520;2024-01-30T13:30:28;19.63;;;9.20;;
4504;SDS011;2265;48.794;9.520;2024-01-30T13:32:55;24.90;;;9.73;;
4504;SDS011;2265;48.794;9.520;2024-01-30T13:35:22;16.13;;;8.23;;
4504;SDS011;2265;48.794;9.520;2024-01-30T13:37:49;21.97;;;9.80;;
4504;SDS011;2265;48.794;9.520;2024-01-30T13:40:17;20.97;;;9.10;;
4504;SDS011;2265;48.794;9.520;2024-01-30T13:42:44;21.17;;;10.20;;
4504;SDS011;2265;48.794;9.520;2024-01-30T13:45:13;19.67;;;9.40;;
4504;SDS011;2265;48.794;9.520;2024-01-30T13:47:40;20.63;;;9.50;;
4504;SDS011;2265;48.794;9.520;2024-01-30T13:50:07;23.10;;;10.33;;
4504;SDS011;2265;48.794;9.520;2024-01-30T13:52:40;18.67;;;9.43;;
4504;SDS011;2265;48.794;9.520;2024-01-30T13:55:07;19.77;;;9.30;;
4504;SDS011;2265;48.794;9.520;2024-01-30T13:57:36;21.17;;;9.53;;
4504;SDS011;2265;48.794;9.520;2024-01-30T14:00:06;18.10;;;8.90;;
4504;SDS011;2265;48.794;9.520;2024-01-30T14:02:34;27.17;;;10.60;;
4504;SDS011;2265;48.794;9.520;2024-01-30T14:05:01;18.20;;;8.90;;
4504;SDS011;2265;48.794;9.520;2024-01-30T14:07:29;26.70;;;10.07;;
4504;SDS011;2265;48.794;9.520;2024-01-30T14:09:56;20.57;;;8.70;;
4504;SDS011;2265;48.794;9.520;2024-01-30T14:12:24;24.13;;;9.70;;
4504;SDS011;2265;48.794;9.520;2024-01-30T14:14:52;21.73;;;8.90;;
4504;SDS011;2265;48.794;9.520;2024-01-30T14:17:19;21.00;;;9.10;;
4504;SDS011;2265;48.794;9.520;2024-01-30T14:19:46;21.77;;;9.70;;
4504;SDS011;2265;48.794;9.520;2024-01-30T14:22:17;21.47;;;9.60;;
4504;SDS011;2265;48.794;9.520;2024-01-30T14:24:44;17.70;;;8.27;;
4504;SDS011;2265;48.794;9.520;2024-01-30T14:27:12;17.93;;;8.67;;
4504;SDS011;2265;48.794;9.520;2024-01-30T14:29:39;23.53;;;9.50;;
4504;SDS011;2265;48.794;9.520;2024-01-30T14:32:09;20.67;;;9.27;;
4504;SDS011;2265;48.794;9.520;2024-01-30T14:34:36;19.90;;;9.13;;
4504;SDS011;2265;48.794;9.520;2024-01-30T14:37:03;18.33;;;9.60;;
4504;SDS011;2265;48.794;9.520;2024-01-30T14:39:30;17.73;;;8.60;;
4504;SDS011;2265;48.794;9.520;2024-01-30T14:41:59;15.97;;;8.30;;
4504;SDS011;2265;48.794;9.520;2024-01-30T14:44:26;14.40;;;7.63;;
4504;SDS011;2265;48.794;9.520;2024-01-30T14:46:53;18.20;;;8.50;;
4504;SDS011;2265;48.794;9.520;2024-01-30T14:49:21;15.47;;;7.93;;
4504;SDS011;2265;48.794;9.520;2024-01-30T14:51:48;17.60;;;8.30;;
4504;SDS011;2265;48.794;9.520;2024-01-30T14:54:15;15.27;;;7.33;;
4504;SDS011;2265;48.794;9.520;2024-01-30T14:56:43;14.60;;;7.00;;
4504;SDS011;2265;48.794;9.520;2024-01-30T14:59:10;18.37;;;7.77;;
4504;SDS011;2265;48.794;9.520;2024-01-30T15:01:38;22.73;;;8.53;;
4504;SDS011;2265;48.794;9.520;2024-01-30T15:04:05;19.20;;;8.57;;
4504;SDS011;2265;48.794;9.520;2024-01-30T15:06:34;16.60;;;7.63;;
4504;SDS011;2265;48.794;9.520;2024-01-30T15:09:02;18.03;;;8.27;;